sensor_id;sensor_type;location;lat;lon;timestamp;P1;P2;P0
55518;PMS5003;41724;51.176;-0.708;2024-02-28T00:01:25;10;7;
55518;PMS5003;41724;51.176;-0.708;2024-02-28T00:03:52;5;4;
55518;PMS5003;41724;51.176;-0.708;2024-02-28T00:06:19;9;6;
55518;PMS5003;41724;51.176;-0.708;2024-02-28T00:08:47;6;6;
55518;PMS5003;41724;51.176;-0.708;2024-02-28T00:11:14;6;6;
55518;PMS5003;41724;51.176;-0.708;2024-02-28T00:13:41;11;9;
55518;PMS5003;41724;51.176;-0.708;2024-02-28T00:16:08;6;6;
55518;PMS5003;41724;51.176;-0.708;2024-02-28T00:18:35;6;5;
55518;PMS5003;41724;51.176;-0.708;2024-02-28T00:21:03;5;4;
55518;PMS5003;41724;51.176;-0.708;2024-02-28T00:23:30;5;5;
55518;PMS5003;41724;51.176;-0.708;2024-02-28T00:25:57;7;5;
55518;PMS5003;41724;51.176;-0.708;2024-02-28T00:28:25;5;5;
55518;PMS5003;41724;51.176;-0.708;2024-02-28T00:30:52;4;4;
55518;PMS5003;41724;51.176;-0.708;2024-02-28T00:33:19;5;5;
55518;PMS5003;41724;51.176;-0.708;2024-02-28T00:35:46;5;5;
55518;PMS5003;41724;51.176;-0.708;2024-02-28T00:38:13;5;5;
55518;PMS5003;41724;51.176;-0.708;2024-02-28T00:40:40;14;9;
55518;PMS5003;41724;51.176;-0.708;2024-02-28T00:43:07;9;7;
55518;PMS5003;41724;51.176;-0.708;2024-02-28T00:45:34;6;6;
55518;PMS5003;41724;51.176;-0.708;2024-02-28T00:48:02;12;8;
55518;PMS5003;41724;51.176;-0.708;2024-02-28T00:50:29;8;8;
55518;PMS5003;41724;51.176;-0.708;2024-02-28T00:52:56;16;14;
55518;PMS5003;41724;51.176;-0.708;2024-02-28T00:55:23;8;8;
55518;PMS5003;41724;51.176;-0.708;2024-02-28T00:57:51;14;11;
55518;PMS5003;41724;51.176;-0.708;2024-02-28T01:00:18;18;18;
55518;PMS5003;41724;51.176;-0.708;2024-02-28T01:02:45;20;18;
55518;PMS5003;41724;51.176;-0.708;2024-02-28T01:05:13;7;7;
55518;PMS5003;41724;51.176;-0.708;2024-02-28T01:07:40;9;8;
55518;PMS5003;41724;51.176;-0.708;2024-02-28T01:10:08;10;8;
55518;PMS5003;41724;51.176;-0.708;2024-02-28T01:12:36;6;6;
55518;PMS5003;41724;51.176;-0.708;2024-02-28T01:15:03;11;9;
55518;PMS5003;41724;51.176;-0.708;2024-02-28T01:17:31;11;9;
55518;PMS5003;41724;51.176;-0.708;2024-02-28T01:19:58;12;11;
55518;PMS5003;41724;51.176;-0.708;2024-02-28T01:22:25;10;8;
55518;PMS5003;41724;51.176;-0.708;2024-02-28T01:24:52;5;5;
55518;PMS5003;41724;51.176;-0.708;2024-02-28T01:27:19;8;8;
55518;PMS5003;41724;51.176;-0.708;2024-02-28T01:29:46;6;6;
55518;PMS5003;41724;51.176;-0.708;2024-02-28T01:32:13;4;4;
55518;PMS5003;41724;51.176;-0.708;2024-02-28T01:34:41;5;4;
55518;PMS5003;41724;51.176;-0.708;2024-02-28T01:37:08;7;5;
55518;PMS5003;41724;51.176;-0.708;2024-02-28T01:39:34;7;7;
55518;PMS5003;41724;51.176;-0.708;2024-02-28T01:42:02;5;4;
55518;PMS5003;41724;51.176;-0.708;2024-02-28T01:44:30;5;4;
55518;PMS5003;41724;51.176;-0.708;2024-02-28T01:46:57;7;7;
55518;PMS5003;41724;51.176;-0.708;2024-02-28T01:49:24;7;6;
55518;PMS5003;41724;51.176;-0.708;2024-02-28T01:51:52;4;4;
55518;PMS5003;41724;51.176;-0.708;2024-02-28T01:54:21;5;5;
55518;PMS5003;41724;51.176;-0.708;2024-02-28T01:56:48;3;3;
55518;PMS5003;41724;51.176;-0.708;2024-02-28T01:59:16;6;6;
55518;PMS5003;41724;51.176;-0.708;2024-02-28T02:01:45;7;6;
55518;PMS5003;41724;51.176;-0.708;2024-02-28T02:04:12;7;5;
55518;PMS5003;41724;51.176;-0.708;2024-02-28T02:06:41;4;3;
55518;PMS5003;41724;51.176;-0.708;2024-02-28T02:09:10;6;6;
55518;PMS5003;41724;51.176;-0.708;2024-02-28T02:11:38;6;5;
55518;PMS5003;41724;51.176;-0.708;2024-02-28T02:14:05;10;10;
55518;PMS5003;41724;51.176;-0.708;2024-02-28T02:16:32;7;7;
55518;PMS5003;41724;51.176;-0.708;2024-02-28T02:18:59;6;6;
55518;PMS5003;41724;51.176;-0.708;2024-02-28T02:21:29;7;6;
55518;PMS5003;41724;51.176;-0.708;2024-02-28T02:24:00;6;5;
55518;PMS5003;41724;51.176;-0.708;2024-02-28T02:26:27;9;8;
55518;PMS5003;41724;51.176;-0.708;2024-02-28T02:28:54;7;6;
55518;PMS5003;41724;51.176;-0.708;2024-02-28T02:31:21;8;7;
55518;PMS5003;41724;51.176;-0.708;2024-02-28T02:33:48;4;4;
55518;PMS5003;41724;51.176;-0.708;2024-02-28T02:36:15;7;6;
55518;PMS5003;41724;51.176;-0.708;2024-02-28T02:38:43;5;4;
55518;PMS5003;41724;51.176;-0.708;2024-02-28T02:41:10;6;4;
55518;PMS5003;41724;51.176;-0.708;2024-02-28T02:43:37;4;4;
55518;PMS5003;41724;51.176;-0.708;2024-02-28T02:46:04;4;4;
55518;PMS5003;41724;51.176;-0.708;2024-02-28T02:48:31;5;5;
55518;PMS5003;41724;51.176;-0.708;2024-02-28T02:50:58;5;5;
55518;PMS5003;41724;51.176;-0.708;2024-02-28T02:53:25;7;6;
55518;PMS5003;41724;51.176;-0.708;2024-02-28T02:55:52;5;5;
55518;PMS5003;41724;51.176;-0.708;2024-02-28T02:58:19;5;5;
55518;PMS5003;41724;51.176;-0.708;2024-02-28T03:00:46;5;4;
55518;PMS5003;41724;51.176;-0.708;2024-02-28T03:03:13;6;5;
55518;PMS5003;41724;51.176;-0.708;2024-02-28T03:05:41;6;5;
55518;PMS5003;41724;51.176;-0.708;2024-02-28T03:08:08;4;4;
55518;PMS5003;41724;51.176;-0.708;2024-02-28T03:10:35;7;6;
55518;PMS5003;41724;51.176;-0.708;2024-02-28T03:13:02;5;4;
55518;PMS5003;41724;51.176;-0.708;2024-02-28T03:15:29;5;5;
55518;PMS5003;41724;51.176;-0.708;2024-02-28T03:17:56;6;5;
55518;PMS5003;41724;51.176;-0.708;2024-02-28T03:20:23;4;4;
55518;PMS5003;41724;51.176;-0.708;2024-02-28T03:22:50;4;4;
55518;PMS5003;41724;51.176;-0.708;2024-02-28T03:25:18;5;5;
55518;PMS5003;41724;51.176;-0.708;2024-02-28T03:27:45;8;7;
55518;PMS5003;41724;51.176;-0.708;2024-02-28T03:30:12;4;4;
55518;PMS5003;41724;51.176;-0.708;2024-02-28T03:32:39;4;4;
55518;PMS5003;41724;51.176;-0.708;2024-02-28T03:35:06;3;3;
55518;PMS5003;41724;51.176;-0.708;2024-02-28T03:37:34;4;4;
55518;PMS5003;41724;51.176;-0.708;2024-02-28T03:40:01;4;4;
55518;PMS5003;41724;51.176;-0.708;2024-02-28T03:42:28;6;5;
55518;PMS5003;41724;51.176;-0.708;2024-02-28T03:44:55;5;4;
55518;PMS5003;41724;51.176;-0.708;2024-02-28T03:47:23;4;4;
55518;PMS5003;41724;51.176;-0.708;2024-02-28T03:49:50;5;5;
55518;PMS5003;41724;51.176;-0.708;2024-02-28T03:52:17;8;5;
55518;PMS5003;41724;51.176;-0.708;2024-02-28T03:54:44;6;5;
55518;PMS5003;41724;51.176;-0.708;2024-02-28T03:57:11;6;6;
55518;PMS5003;41724;51.176;-0.708;2024-02-28T03:59:38;7;6;
55518;PMS5003;41724;51.176;-0.708;2024-02-28T04:02:07;4;3;
55518;PMS5003;41724;51.176;-0.708;2024-02-28T04:04:34;5;4;
55518;PMS5003;41724;51.176;-0.708;2024-02-28T04:07:01;4;4;
55518;PMS5003;41724;51.176;-0.708;2024-02-28T04:09:28;4;4;
55518;PMS5003;41724;51.176;-0.708;2024-02-28T04:11:55;9;8;
55518;PMS5003;41724;51.176;-0.708;2024-02-28T04:14:22;5;5;
55518;PMS5003;41724;51.176;-0.708;2024-02-28T04:16:49;6;6;
55518;PMS5003;41724;51.176;-0.708;2024-02-28T04:19:16;5;5;
55518;PMS5003;41724;51.176;-0.708;2024-02-28T04:21:43;6;5;
55518;PMS5003;41724;51.176;-0.708;2024-02-28T04:24:11;8;7;
55518;PMS5003;41724;51.176;-0.708;2024-02-28T04:26:38;8;6;
55518;PMS5003;41724;51.176;-0.708;2024-02-28T04:29:05;3;3;
55518;PMS5003;41724;51.176;-0.708;2024-02-28T04:31:32;5;5;
55518;PMS5003;41724;51.176;-0.708;2024-02-28T04:33:59;5;5;
55518;PMS5003;41724;51.176;-0.708;2024-02-28T04:36:26;6;6;
55518;PMS5003;41724;51.176;-0.708;2024-02-28T04:38:53;5;4;
55518;PMS5003;41724;51.176;-0.708;2024-02-28T04:41:20;5;5;
55518;PMS5003;41724;51.176;-0.708;2024-02-28T04:43:47;6;5;
55518;PMS5003;41724;51.176;-0.708;2024-02-28T04:46:14;4;4;
55518;PMS5003;41724;51.176;-0.708;2024-02-28T04:48:41;4;4;
55518;PMS5003;41724;51.176;-0.708;2024-02-28T04:51:09;4;4;
55518;PMS5003;41724;51.176;-0.708;2024-02-28T04:53:36;3;3;
55518;PMS5003;41724;51.176;-0.708;2024-02-28T04:56:03;4;4;
55518;PMS5003;41724;51.176;-0.708;2024-02-28T04:58:31;6;6;
55518;PMS5003;41724;51.176;-0.708;2024-02-28T05:00:58;4;4;
55518;PMS5003;41724;51.176;-0.708;2024-02-28T05:03:25;4;4;
55518;PMS5003;41724;51.176;-0.708;2024-02-28T05:05:52;4;4;
55518;PMS5003;41724;51.176;-0.708;2024-02-28T05:08:19;4;4;
55518;PMS5003;41724;51.176;-0.708;2024-02-28T05:10:47;4;4;
55518;PMS5003;41724;51.176;-0.708;2024-02-28T05:13:15;4;4;
55518;PMS5003;41724;51.176;-0.708;2024-02-28T05:15:42;3;3;
55518;PMS5003;41724;51.176;-0.708;2024-02-28T05:18:09;3;3;
55518;PMS5003;41724;51.176;-0.708;2024-02-28T05:20:37;5;5;
55518;PMS5003;41724;51.176;-0.708;2024-02-28T05:23:04;4;4;
55518;PMS5003;41724;51.176;-0.708;2024-02-28T05:25:31;4;4;
55518;PMS5003;41724;51.176;-0.708;2024-02-28T05:27:58;3;3;
55518;PMS5003;41724;51.176;-0.708;2024-02-28T05:30:25;3;3;
55518;PMS5003;41724;51.176;-0.708;2024-02-28T05:32:52;3;3;
55518;PMS5003;41724;51.176;-0.708;2024-02-28T05:35:19;4;3;
55518;PMS5003;41724;51.176;-0.708;2024-02-28T05:37:46;4;4;
55518;PMS5003;41724;51.176;-0.708;2024-02-28T05:40:13;4;4;
55518;PMS5003;41724;51.176;-0.708;2024-02-28T05:42:41;3;3;
55518;PMS5003;41724;51.176;-0.708;2024-02-28T05:45:08;4;3;
55518;PMS5003;41724;51.176;-0.708;2024-02-28T05:47:36;3;3;
55518;PMS5003;41724;51.176;-0.708;2024-02-28T05:50:03;5;4;
55518;PMS5003;41724;51.176;-0.708;2024-02-28T05:52:31;3;3;
55518;PMS5003;41724;51.176;-0.708;2024-02-28T05:54:58;3;3;
55518;PMS5003;41724;51.176;-0.708;2024-02-28T05:57:26;3;2;
55518;PMS5003;41724;51.176;-0.708;2024-02-28T05:59:53;3;3;
55518;PMS5003;41724;51.176;-0.708;2024-02-28T06:02:20;3;2;
55518;PMS5003;41724;51.176;-0.708;2024-02-28T06:04:47;3;3;
55518;PMS5003;41724;51.176;-0.708;2024-02-28T06:07:14;3;3;
55518;PMS5003;41724;51.176;-0.708;2024-02-28T06:09:41;4;4;
55518;PMS5003;41724;51.176;-0.708;2024-02-28T06:12:09;7;7;
55518;PMS5003;41724;51.176;-0.708;2024-02-28T06:14:36;4;4;
55518;PMS5003;41724;51.176;-0.708;2024-02-28T06:17:03;3;3;
55518;PMS5003;41724;51.176;-0.708;2024-02-28T06:19:30;3;3;
55518;PMS5003;41724;51.176;-0.708;2024-02-28T06:21:57;3;3;
55518;PMS5003;41724;51.176;-0.708;2024-02-28T06:24:24;3;3;
55518;PMS5003;41724;51.176;-0.708;2024-02-28T06:26:51;5;4;
55518;PMS5003;41724;51.176;-0.708;2024-02-28T06:29:18;3;3;
55518;PMS5003;41724;51.176;-0.708;2024-02-28T06:31:49;3;3;
55518;PMS5003;41724;51.176;-0.708;2024-02-28T06:34:17;3;3;
55518;PMS5003;41724;51.176;-0.708;2024-02-28T06:36:44;4;4;
55518;PMS5003;41724;51.176;-0.708;2024-02-28T06:39:11;4;4;
55518;PMS5003;41724;51.176;-0.708;2024-02-28T06:41:38;3;3;
55518;PMS5003;41724;51.176;-0.708;2024-02-28T06:44:05;4;4;
55518;PMS5003;41724;51.176;-0.708;2024-02-28T06:46:32;6;5;
55518;PMS5003;41724;51.176;-0.708;2024-02-28T06:49:00;5;5;
55518;PMS5003;41724;51.176;-0.708;2024-02-28T06:51:27;5;5;
55518;PMS5003;41724;51.176;-0.708;2024-02-28T06:53:54;4;4;
55518;PMS5003;41724;51.176;-0.708;2024-02-28T06:56:21;3;3;
55518;PMS5003;41724;51.176;-0.708;2024-02-28T06:58:48;3;3;
55518;PMS5003;41724;51.176;-0.708;2024-02-28T07:01:15;3;3;
55518;PMS5003;41724;51.176;-0.708;2024-02-28T07:03:43;3;3;
55518;PMS5003;41724;51.176;-0.708;2024-02-28T07:06:11;5;5;
55518;PMS5003;41724;51.176;-0.708;2024-02-28T07:08:38;3;3;
55518;PMS5003;41724;51.176;-0.708;2024-02-28T07:11:12;3;2;
55518;PMS5003;41724;51.176;-0.708;2024-02-28T07:13:39;4;4;
55518;PMS5003;41724;51.176;-0.708;2024-02-28T07:16:06;3;3;
55518;PMS5003;41724;51.176;-0.708;2024-02-28T07:18:34;4;3;
55518;PMS5003;41724;51.176;-0.708;2024-02-28T07:21:01;6;4;
55518;PMS5003;41724;51.176;-0.708;2024-02-28T07:23:28;6;5;
55518;PMS5003;41724;51.176;-0.708;2024-02-28T07:25:55;5;5;
55518;PMS5003;41724;51.176;-0.708;2024-02-28T07:28:22;7;7;
55518;PMS5003;41724;51.176;-0.708;2024-02-28T07:30:49;8;8;
55518;PMS5003;41724;51.176;-0.708;2024-02-28T07:33:16;6;6;
55518;PMS5003;41724;51.176;-0.708;2024-02-28T07:35:44;6;6;
55518;PMS5003;41724;51.176;-0.708;2024-02-28T07:38:11;8;8;
55518;PMS5003;41724;51.176;-0.708;2024-02-28T07:40:38;5;5;
55518;PMS5003;41724;51.176;-0.708;2024-02-28T07:43:06;6;6;
55518;PMS5003;41724;51.176;-0.708;2024-02-28T07:45:33;6;6;
55518;PMS5003;41724;51.176;-0.708;2024-02-28T07:48:00;6;6;
55518;PMS5003;41724;51.176;-0.708;2024-02-28T07:50:27;6;5;
55518;PMS5003;41724;51.176;-0.708;2024-02-28T07:52:55;6;6;
55518;PMS5003;41724;51.176;-0.708;2024-02-28T07:55:22;5;5;
55518;PMS5003;41724;51.176;-0.708;2024-02-28T07:57:50;7;7;
55518;PMS5003;41724;51.176;-0.708;2024-02-28T08:00:18;6;6;
55518;PMS5003;41724;51.176;-0.708;2024-02-28T08:02:45;8;8;
55518;PMS5003;41724;51.176;-0.708;2024-02-28T08:05:13;7;7;
55518;PMS5003;41724;51.176;-0.708;2024-02-28T08:07:41;10;10;
55518;PMS5003;41724;51.176;-0.708;2024-02-28T08:10:09;7;6;
55518;PMS5003;41724;51.176;-0.708;2024-02-28T08:12:36;5;5;
55518;PMS5003;41724;51.176;-0.708;2024-02-28T08:15:03;10;9;
55518;PMS5003;41724;51.176;-0.708;2024-02-28T08:17:31;7;6;
55518;PMS5003;41724;51.176;-0.708;2024-02-28T08:19:58;7;6;
55518;PMS5003;41724;51.176;-0.708;2024-02-28T08:22:25;7;6;
55518;PMS5003;41724;51.176;-0.708;2024-02-28T08:24:52;9;9;
55518;PMS5003;41724;51.176;-0.708;2024-02-28T08:27:19;6;6;
55518;PMS5003;41724;51.176;-0.708;2024-02-28T08:29:46;8;8;
55518;PMS5003;41724;51.176;-0.708;2024-02-28T08:32:13;6;6;
55518;PMS5003;41724;51.176;-0.708;2024-02-28T08:34:43;5;5;
55518;PMS5003;41724;51.176;-0.708;2024-02-28T08:37:10;5;5;
55518;PMS5003;41724;51.176;-0.708;2024-02-28T08:39:37;7;6;
55518;PMS5003;41724;51.176;-0.708;2024-02-28T08:42:04;6;6;
55518;PMS5003;41724;51.176;-0.708;2024-02-28T08:44:32;11;10;
55518;PMS5003;41724;51.176;-0.708;2024-02-28T08:46:59;4;3;
55518;PMS5003;41724;51.176;-0.708;2024-02-28T08:49:26;4;4;
55518;PMS5003;41724;51.176;-0.708;2024-02-28T08:51:53;3;3;
55518;PMS5003;41724;51.176;-0.708;2024-02-28T08:54:20;4;4;
55518;PMS5003;41724;51.176;-0.708;2024-02-28T08:56:47;3;3;
55518;PMS5003;41724;51.176;-0.708;2024-02-28T08:59:14;3;3;
55518;PMS5003;41724;51.176;-0.708;2024-02-28T09:01:41;4;4;
55518;PMS5003;41724;51.176;-0.708;2024-02-28T09:04:08;3;3;
55518;PMS5003;41724;51.176;-0.708;2024-02-28T09:06:35;10;8;
55518;PMS5003;41724;51.176;-0.708;2024-02-28T09:09:03;5;5;
55518;PMS5003;41724;51.176;-0.708;2024-02-28T09:11:30;4;4;
55518;PMS5003;41724;51.176;-0.708;2024-02-28T09:13:57;5;5;
55518;PMS5003;41724;51.176;-0.708;2024-02-28T09:16:24;2;2;
55518;PMS5003;41724;51.176;-0.708;2024-02-28T09:18:51;5;4;
55518;PMS5003;41724;51.176;-0.708;2024-02-28T09:21:18;3;2;
55518;PMS5003;41724;51.176;-0.708;2024-02-28T09:23:45;7;5;
55518;PMS5003;41724;51.176;-0.708;2024-02-28T09:26:12;4;4;
55518;PMS5003;41724;51.176;-0.708;2024-02-28T09:28:39;3;3;
55518;PMS5003;41724;51.176;-0.708;2024-02-28T09:31:06;9;5;
55518;PMS5003;41724;51.176;-0.708;2024-02-28T09:33:33;5;5;
55518;PMS5003;41724;51.176;-0.708;2024-02-28T09:36:01;3;3;
55518;PMS5003;41724;51.176;-0.708;2024-02-28T09:38:28;2;2;
55518;PMS5003;41724;51.176;-0.708;2024-02-28T09:40:55;2;2;
55518;PMS5003;41724;51.176;-0.708;2024-02-28T09:43:24;5;5;
55518;PMS5003;41724;51.176;-0.708;2024-02-28T09:45:56;6;6;
55518;PMS5003;41724;51.176;-0.708;2024-02-28T09:48:27;3;3;
55518;PMS5003;41724;51.176;-0.708;2024-02-28T09:50:54;4;4;
55518;PMS5003;41724;51.176;-0.708;2024-02-28T09:53:21;5;5;
55518;PMS5003;41724;51.176;-0.708;2024-02-28T09:55:49;4;3;
55518;PMS5003;41724;51.176;-0.708;2024-02-28T09:58:17;5;5;
55518;PMS5003;41724;51.176;-0.708;2024-02-28T10:00:45;6;4;
55518;PMS5003;41724;51.176;-0.708;2024-02-28T10:03:14;3;3;
55518;PMS5003;41724;51.176;-0.708;2024-02-28T10:05:44;4;4;
55518;PMS5003;41724;51.176;-0.708;2024-02-28T10:08:12;4;4;
55518;PMS5003;41724;51.176;-0.708;2024-02-28T10:10:44;5;5;
55518;PMS5003;41724;51.176;-0.708;2024-02-28T10:13:12;4;4;
55518;PMS5003;41724;51.176;-0.708;2024-02-28T10:15:38;9;9;
55518;PMS5003;41724;51.176;-0.708;2024-02-28T10:18:06;9;8;
55518;PMS5003;41724;51.176;-0.708;2024-02-28T10:20:33;7;6;
55518;PMS5003;41724;51.176;-0.708;2024-02-28T10:23:03;7;7;
55518;PMS5003;41724;51.176;-0.708;2024-02-28T10:25:30;6;5;
55518;PMS5003;41724;51.176;-0.708;2024-02-28T10:27:59;8;7;
55518;PMS5003;41724;51.176;-0.708;2024-02-28T10:30:26;8;7;
55518;PMS5003;41724;51.176;-0.708;2024-02-28T10:32:53;8;8;
55518;PMS5003;41724;51.176;-0.708;2024-02-28T10:35:20;10;10;
55518;PMS5003;41724;51.176;-0.708;2024-02-28T10:37:47;10;8;
55518;PMS5003;41724;51.176;-0.708;2024-02-28T10:40:17;18;18;
55518;PMS5003;41724;51.176;-0.708;2024-02-28T10:42:46;14;14;
55518;PMS5003;41724;51.176;-0.708;2024-02-28T10:45:15;18;17;
55518;PMS5003;41724;51.176;-0.708;2024-02-28T10:47:45;29;29;
55518;PMS5003;41724;51.176;-0.708;2024-02-28T10:50:12;24;22;
55518;PMS5003;41724;51.176;-0.708;2024-02-28T10:52:43;19;19;
55518;PMS5003;41724;51.176;-0.708;2024-02-28T10:55:11;25;25;
55518;PMS5003;41724;51.176;-0.708;2024-02-28T10:57:40;22;21;
55518;PMS5003;41724;51.176;-0.708;2024-02-28T11:00:08;20;19;
55518;PMS5003;41724;51.176;-0.708;2024-02-28T11:02:37;15;14;
55518;PMS5003;41724;51.176;-0.708;2024-02-28T11:05:04;13;12;
55518;PMS5003;41724;51.176;-0.708;2024-02-28T11:07:31;10;9;
55518;PMS5003;41724;51.176;-0.708;2024-02-28T11:09:58;12;12;
55518;PMS5003;41724;51.176;-0.708;2024-02-28T11:12:31;10;10;
55518;PMS5003;41724;51.176;-0.708;2024-02-28T11:14:58;11;10;
55518;PMS5003;41724;51.176;-0.708;2024-02-28T11:17:27;17;16;
55518;PMS5003;41724;51.176;-0.708;2024-02-28T11:19:56;11;11;
55518;PMS5003;41724;51.176;-0.708;2024-02-28T11:22:23;7;7;
55518;PMS5003;41724;51.176;-0.708;2024-02-28T11:24:54;7;7;
55518;PMS5003;41724;51.176;-0.708;2024-02-28T11:27:22;6;6;
55518;PMS5003;41724;51.176;-0.708;2024-02-28T11:29:49;6;6;
55518;PMS5003;41724;51.176;-0.708;2024-02-28T11:32:16;9;9;
55518;PMS5003;41724;51.176;-0.708;2024-02-28T11:34:43;5;5;
55518;PMS5003;41724;51.176;-0.708;2024-02-28T11:37:10;7;6;
55518;PMS5003;41724;51.176;-0.708;2024-02-28T11:39:37;5;5;
55518;PMS5003;41724;51.176;-0.708;2024-02-28T11:42:12;6;5;
55518;PMS5003;41724;51.176;-0.708;2024-02-28T11:44:40;5;5;
55518;PMS5003;41724;51.176;-0.708;2024-02-28T11:47:08;8;6;
55518;PMS5003;41724;51.176;-0.708;2024-02-28T11:49:35;8;7;
55518;PMS5003;41724;51.176;-0.708;2024-02-28T11:52:03;7;5;
55518;PMS5003;41724;51.176;-0.708;2024-02-28T11:54:31;13;13;
55518;PMS5003;41724;51.176;-0.708;2024-02-28T11:56:58;9;9;
55518;PMS5003;41724;51.176;-0.708;2024-02-28T11:59:24;16;15;
55518;PMS5003;41724;51.176;-0.708;2024-02-28T12:01:51;13;12;
55518;PMS5003;41724;51.176;-0.708;2024-02-28T12:04:18;12;11;
55518;PMS5003;41724;51.176;-0.708;2024-02-28T12:06:45;12;11;
55518;PMS5003;41724;51.176;-0.708;2024-02-28T12:09:13;13;11;
55518;PMS5003;41724;51.176;-0.708;2024-02-28T12:11:40;7;7;
55518;PMS5003;41724;51.176;-0.708;2024-02-28T12:14:07;6;3;
55518;PMS5003;41724;51.176;-0.708;2024-02-28T12:16:36;4;4;
55518;PMS5003;41724;51.176;-0.708;2024-02-28T12:19:04;4;4;
55518;PMS5003;41724;51.176;-0.708;2024-02-28T12:21:33;3;3;
55518;PMS5003;41724;51.176;-0.708;2024-02-28T12:24:00;3;2;
55518;PMS5003;41724;51.176;-0.708;2024-02-28T12:26:27;6;3;
55518;PMS5003;41724;51.176;-0.708;2024-02-28T12:28:54;3;3;
55518;PMS5003;41724;51.176;-0.708;2024-02-28T12:31:21;5;4;
55518;PMS5003;41724;51.176;-0.708;2024-02-28T12:33:48;6;4;
55518;PMS5003;41724;51.176;-0.708;2024-02-28T12:36:16;3;3;
55518;PMS5003;41724;51.176;-0.708;2024-02-28T12:38:43;3;3;
55518;PMS5003;41724;51.176;-0.708;2024-02-28T12:41:10;5;5;
55518;PMS5003;41724;51.176;-0.708;2024-02-28T12:43:38;9;4;
55518;PMS5003;41724;51.176;-0.708;2024-02-28T12:46:05;5;3;
55518;PMS5003;41724;51.176;-0.708;2024-02-28T12:48:36;3;3;
55518;PMS5003;41724;51.176;-0.708;2024-02-28T12:51:04;13;9;
55518;PMS5003;41724;51.176;-0.708;2024-02-28T12:53:32;5;4;
55518;PMS5003;41724;51.176;-0.708;2024-02-28T12:55:59;7;4;
55518;PMS5003;41724;51.176;-0.708;2024-02-28T12:58:26;7;6;
55518;PMS5003;41724;51.176;-0.708;2024-02-28T13:00:53;9;7;
55518;PMS5003;41724;51.176;-0.708;2024-02-28T13:03:20;10;6;
55518;PMS5003;41724;51.176;-0.708;2024-02-28T13:05:47;6;5;
55518;PMS5003;41724;51.176;-0.708;2024-02-28T13:08:14;11;10;
55518;PMS5003;41724;51.176;-0.708;2024-02-28T13:10:41;17;15;
55518;PMS5003;41724;51.176;-0.708;2024-02-28T13:13:09;13;11;
55518;PMS5003;41724;51.176;-0.708;2024-02-28T13:15:35;18;16;
55518;PMS5003;41724;51.176;-0.708;2024-02-28T13:18:03;9;8;
55518;PMS5003;41724;51.176;-0.708;2024-02-28T13:20:30;12;8;
55518;PMS5003;41724;51.176;-0.708;2024-02-28T13:22:57;9;7;
55518;PMS5003;41724;51.176;-0.708;2024-02-28T13:25:24;4;3;
55518;PMS5003;41724;51.176;-0.708;2024-02-28T13:27:51;9;7;
55518;PMS5003;41724;51.176;-0.708;2024-02-28T13:30:18;7;5;
55518;PMS5003;41724;51.176;-0.708;2024-02-28T13:32:45;5;3;
55518;PMS5003;41724;51.176;-0.708;2024-02-28T13:35:12;5;2;
55518;PMS5003;41724;51.176;-0.708;2024-02-28T13:37:39;6;4;
55518;PMS5003;41724;51.176;-0.708;2024-02-28T13:40:07;4;4;
55518;PMS5003;41724;51.176;-0.708;2024-02-28T13:42:34;6;5;
55518;PMS5003;41724;51.176;-0.708;2024-02-28T13:45:01;5;3;
55518;PMS5003;41724;51.176;-0.708;2024-02-28T13:47:28;2;2;
55518;PMS5003;41724;51.176;-0.708;2024-02-28T13:49:55;4;3;
55518;PMS5003;41724;51.176;-0.708;2024-02-28T13:52:22;5;3;
55518;PMS5003;41724;51.176;-0.708;2024-02-28T13:54:49;6;5;
55518;PMS5003;41724;51.176;-0.708;2024-02-28T13:57:16;6;5;
55518;PMS5003;41724;51.176;-0.708;2024-02-28T13:59:43;3;3;
55518;PMS5003;41724;51.176;-0.708;2024-02-28T14:02:10;2;2;
55518;PMS5003;41724;51.176;-0.708;2024-02-28T14:04:37;4;4;
55518;PMS5003;41724;51.176;-0.708;2024-02-28T14:07:04;4;3;
55518;PMS5003;41724;51.176;-0.708;2024-02-28T14:09:31;5;3;
55518;PMS5003;41724;51.176;-0.708;2024-02-28T14:11:58;3;3;
55518;PMS5003;41724;51.176;-0.708;2024-02-28T14:14:25;6;4;
55518;PMS5003;41724;51.176;-0.708;2024-02-28T14:16:52;4;4;
55518;PMS5003;41724;51.176;-0.708;2024-02-28T14:19:19;6;5;
55518;PMS5003;41724;51.176;-0.708;2024-02-28T14:21:46;10;8;
55518;PMS5003;41724;51.176;-0.708;2024-02-28T14:24:13;7;5;
55518;PMS5003;41724;51.176;-0.708;2024-02-28T14:26:40;6;5;
55518;PMS5003;41724;51.176;-0.708;2024-02-28T14:29:07;5;4;
55518;PMS5003;41724;51.176;-0.708;2024-02-28T14:31:34;5;4;
55518;PMS5003;41724;51.176;-0.708;2024-02-28T14:34:01;6;6;
55518;PMS5003;41724;51.176;-0.708;2024-02-28T14:36:28;3;2;
55518;PMS5003;41724;51.176;-0.708;2024-02-28T14:38:54;6;5;
55518;PMS5003;41724;51.176;-0.708;2024-02-28T14:41:21;7;5;
55518;PMS5003;41724;51.176;-0.708;2024-02-28T14:43:48;4;4;
55518;PMS5003;41724;51.176;-0.708;2024-02-28T14:46:15;4;3;
55518;PMS5003;41724;51.176;-0.708;2024-02-28T14:48:42;5;5;
55518;PMS5003;41724;51.176;-0.708;2024-02-28T14:51:09;3;2;
55518;PMS5003;41724;51.176;-0.708;2024-02-28T14:53:36;6;5;
55518;PMS5003;41724;51.176;-0.708;2024-02-28T14:56:03;2;2;
55518;PMS5003;41724;51.176;-0.708;2024-02-28T14:58:31;3;2;
55518;PMS5003;41724;51.176;-0.708;2024-02-28T15:00:58;1;1;
55518;PMS5003;41724;51.176;-0.708;2024-02-28T15:03:25;4;4;
55518;PMS5003;41724;51.176;-0.708;2024-02-28T15:05:52;4;2;
55518;PMS5003;41724;51.176;-0.708;2024-02-28T15:08:19;4;3;
55518;PMS5003;41724;51.176;-0.708;2024-02-28T15:10:46;5;5;
55518;PMS5003;41724;51.176;-0.708;2024-02-28T15:13:14;5;5;
55518;PMS5003;41724;51.176;-0.708;2024-02-28T15:15:42;9;9;
55518;PMS5003;41724;51.176;-0.708;2024-02-28T15:18:08;7;7;
55518;PMS5003;41724;51.176;-0.708;2024-02-28T15:20:35;6;5;
55518;PMS5003;41724;51.176;-0.708;2024-02-28T15:23:03;3;3;
55518;PMS5003;41724;51.176;-0.708;2024-02-28T15:25:30;5;5;
55518;PMS5003;41724;51.176;-0.708;2024-02-28T15:27:57;6;5;
55518;PMS5003;41724;51.176;-0.708;2024-02-28T15:30:24;4;4;
55518;PMS5003;41724;51.176;-0.708;2024-02-28T15:32:51;3;3;
55518;PMS5003;41724;51.176;-0.708;2024-02-28T15:35:18;5;4;
55518;PMS5003;41724;51.176;-0.708;2024-02-28T15:37:45;5;4;
55518;PMS5003;41724;51.176;-0.708;2024-02-28T15:40:12;2;2;
55518;PMS5003;41724;51.176;-0.708;2024-02-28T15:42:39;2;2;
55518;PMS5003;41724;51.176;-0.708;2024-02-28T15:45:06;2;2;
55518;PMS5003;41724;51.176;-0.708;2024-02-28T15:47:34;1;1;
55518;PMS5003;41724;51.176;-0.708;2024-02-28T15:50:02;1;1;
55518;PMS5003;41724;51.176;-0.708;2024-02-28T15:52:29;1;1;
55518;PMS5003;41724;51.176;-0.708;2024-02-28T15:54:56;1;0;
55518;PMS5003;41724;51.176;-0.708;2024-02-28T15:57:23;1;1;
55518;PMS5003;41724;51.176;-0.708;2024-02-28T15:59:50;0;0;
55518;PMS5003;41724;51.176;-0.708;2024-02-28T16:02:17;1;1;
55518;PMS5003;41724;51.176;-0.708;2024-02-28T16:04:44;0;0;
55518;PMS5003;41724;51.176;-0.708;2024-02-28T16:07:11;0;0;
55518;PMS5003;41724;51.176;-0.708;2024-02-28T16:09:38;0;0;
55518;PMS5003;41724;51.176;-0.708;2024-02-28T16:12:07;0;0;
55518;PMS5003;41724;51.176;-0.708;2024-02-28T16:14:34;0;0;
55518;PMS5003;41724;51.176;-0.708;2024-02-28T16:17:01;1;1;
55518;PMS5003;41724;51.176;-0.708;2024-02-28T16:19:28;2;1;
55518;PMS5003;41724;51.176;-0.708;2024-02-28T16:21:55;1;1;
55518;PMS5003;41724;51.176;-0.708;2024-02-28T16:24:22;3;3;
55518;PMS5003;41724;51.176;-0.708;2024-02-28T16:26:49;2;2;
55518;PMS5003;41724;51.176;-0.708;2024-02-28T16:29:16;4;4;
55518;PMS5003;41724;51.176;-0.708;2024-02-28T16:31:44;4;4;